createdAt,value
2018-08-20T00:00:16.632Z,14.33
2018-08-20T00:02:45.244Z,14.50
2018-08-20T00:05:13.878Z,13.97
2018-08-20T00:07:42.855Z,14.80
2018-08-20T00:10:11.686Z,16.17
2018-08-20T00:12:40.306Z,14.90
2018-08-20T00:15:09.031Z,14.60
2018-08-20T00:17:37.739Z,16.67
2018-08-20T00:20:07.273Z,14.97
2018-08-20T00:22:36.039Z,14.67
2018-08-20T00:25:13.176Z,12.03
2018-08-20T00:27:41.833Z,14.93
2018-08-20T00:30:13.287Z,13.47
2018-08-20T00:32:43.701Z,14.30
2018-08-20T00:35:14.085Z,15.60
2018-08-20T00:37:47.472Z,11.80
2018-08-20T00:40:16.116Z,14.80
2018-08-20T00:42:44.800Z,16.03
2018-08-20T00:45:13.486Z,15.97
2018-08-20T00:47:42.146Z,18.10
2018-08-20T00:50:11.294Z,17.50
2018-08-20T00:52:40.022Z,15.10
2018-08-20T00:55:10.746Z,17.97
2018-08-20T00:57:39.793Z,12.40
2018-08-20T01:00:09.272Z,15.83
2018-08-20T01:02:37.944Z,15.77
2018-08-20T01:05:06.635Z,15.93
2018-08-20T01:07:35.325Z,12.63
2018-08-20T01:10:05.289Z,14.43
2018-08-20T01:12:33.873Z,17.03
2018-08-20T01:15:02.528Z,18.27
2018-08-20T01:17:31.241Z,13.20
2018-08-20T01:19:59.938Z,15.67
2018-08-20T01:22:28.594Z,16.13
2018-08-20T01:24:57.264Z,15.87
2018-08-20T01:27:28.846Z,14.80
2018-08-20T01:29:57.528Z,13.23
2018-08-20T01:32:26.172Z,14.17
2018-08-20T01:34:54.906Z,14.67
2018-08-20T01:37:23.562Z,14.37
2018-08-20T01:39:52.194Z,18.03
2018-08-20T01:42:20.854Z,17.27
2018-08-20T01:44:49.501Z,14.70
2018-08-20T01:47:18.126Z,15.20
2018-08-20T01:49:46.772Z,14.27
2018-08-20T01:52:15.445Z,16.20
2018-08-20T01:54:44.089Z,14.47
2018-08-20T01:57:12.713Z,14.93
2018-08-20T01:59:41.364Z,15.33
2018-08-20T02:02:10.079Z,13.63
2018-08-20T02:04:38.697Z,15.30
2018-08-20T02:07:07.453Z,14.27
2018-08-20T02:09:36.083Z,15.97
2018-08-20T02:12:04.706Z,15.23
2018-08-20T02:14:33.760Z,12.20
2018-08-20T02:17:02.360Z,16.30
2018-08-20T02:19:31.064Z,16.13
2018-08-20T02:21:59.680Z,17.00
2018-08-20T02:24:28.324Z,18.20
2018-08-20T02:26:56.947Z,14.33
2018-08-20T02:29:25.596Z,17.30
2018-08-20T02:31:54.297Z,15.57
2018-08-20T02:34:23.009Z,15.97
2018-08-20T02:36:51.697Z,19.23
2018-08-20T02:39:20.382Z,15.23
2018-08-20T02:41:48.995Z,17.87
2018-08-20T02:44:17.725Z,15.70
2018-08-20T02:46:49.232Z,17.13
2018-08-20T02:49:18.331Z,14.40
2018-08-20T02:51:47.934Z,14.90
2018-08-20T02:54:16.649Z,21.93
2018-08-20T02:56:45.253Z,16.87
2018-08-20T02:59:14.536Z,13.83
2018-08-20T03:01:43.226Z,16.13
2018-08-20T03:04:11.903Z,15.37
2018-08-20T03:06:40.566Z,21.13
2018-08-20T03:09:11.873Z,17.03
2018-08-20T03:11:40.597Z,17.90
2018-08-20T03:14:09.522Z,18.27
2018-08-20T03:16:38.656Z,19.77
2018-08-20T03:19:07.974Z,18.70
2018-08-20T03:21:36.613Z,17.77
2018-08-20T03:24:05.463Z,17.67
2018-08-20T03:26:34.137Z,18.53
2018-08-20T03:29:02.874Z,17.37
2018-08-20T03:31:31.564Z,20.93
2018-08-20T03:34:00.245Z,19.37
2018-08-20T03:36:28.924Z,18.50
2018-08-20T03:38:57.550Z,18.83
2018-08-20T03:41:26.201Z,18.97
2018-08-20T03:43:55.663Z,20.40
2018-08-20T03:46:24.390Z,23.17
2018-08-20T03:48:53.165Z,20.77
2018-08-20T03:51:21.838Z,19.43
2018-08-20T03:53:50.530Z,22.00
2018-08-20T03:56:19.139Z,20.37
2018-08-20T03:58:47.718Z,23.57
2018-08-20T04:01:16.405Z,21.07
2018-08-20T04:03:45.017Z,20.97
2018-08-20T04:06:13.625Z,21.83
2018-08-20T04:08:42.456Z,23.80
2018-08-20T04:11:11.119Z,23.37
2018-08-20T04:13:39.766Z,22.87
2018-08-20T04:16:08.394Z,25.40
2018-08-20T04:18:37.087Z,25.17
2018-08-20T04:21:05.878Z,24.30
2018-08-20T04:23:34.486Z,27.13
2018-08-20T04:26:03.148Z,25.23
2018-08-20T04:28:31.820Z,28.23
2018-08-20T04:31:00.416Z,26.23
2018-08-20T04:33:30.035Z,29.57
2018-08-20T04:35:58.649Z,30.23
2018-08-20T04:38:27.340Z,29.23
2018-08-20T04:40:55.961Z,30.20
2018-08-20T04:43:24.663Z,27.03
2018-08-20T04:45:53.309Z,31.50
2018-08-20T04:48:22.035Z,29.77
2018-08-20T04:50:50.843Z,29.70
2018-08-20T04:53:19.373Z,32.93
2018-08-20T04:55:48.015Z,28.60
2018-08-20T04:58:16.742Z,30.07
2018-08-20T05:00:45.401Z,27.53
2018-08-20T05:03:17.105Z,32.33
2018-08-20T05:05:45.899Z,32.37
2018-08-20T05:08:14.484Z,29.77
2018-08-20T05:10:43.120Z,34.93
2018-08-20T05:13:12.002Z,33.47
2018-08-20T05:15:40.616Z,34.10
2018-08-20T05:18:09.354Z,35.90
2018-08-20T05:20:37.982Z,40.67
2018-08-20T05:23:06.570Z,35.83
2018-08-20T05:25:35.248Z,36.87
2018-08-20T05:28:03.839Z,45.67
2018-08-20T05:30:32.478Z,46.10
2018-08-20T05:33:01.131Z,44.60
2018-08-20T05:35:29.917Z,47.07
2018-08-20T05:37:58.636Z,46.50
2018-08-20T05:40:27.339Z,45.30
2018-08-20T05:42:55.987Z,52.60
2018-08-20T05:45:24.667Z,52.23
2018-08-20T05:47:53.265Z,55.17
2018-08-20T05:50:21.907Z,56.30
2018-08-20T05:52:50.474Z,50.10
2018-08-20T05:55:19.097Z,55.20
2018-08-20T05:57:47.706Z,51.97
2018-08-20T06:00:17.660Z,51.03
2018-08-20T06:02:47.027Z,58.47
2018-08-20T06:05:15.742Z,58.43
2018-08-20T06:07:44.393Z,55.53
2018-08-20T06:10:13.089Z,49.77
2018-08-20T06:12:41.825Z,58.50
2018-08-20T06:15:13.561Z,51.40
2018-08-20T06:17:42.299Z,51.50
2018-08-20T06:20:16.649Z,55.17
2018-08-20T06:22:45.800Z,54.47
2018-08-20T06:25:14.965Z,57.73
2018-08-20T06:27:43.976Z,52.77
2018-08-20T06:30:16.015Z,55.27
2018-08-20T06:32:45.170Z,52.00
2018-08-20T06:35:13.838Z,60.83
2018-08-20T06:37:42.682Z,60.30
2018-08-20T06:40:13.333Z,54.77
2018-08-20T06:42:42.146Z,53.83
2018-08-20T06:45:17.698Z,58.30
2018-08-20T06:47:47.233Z,62.03
2018-08-20T06:50:16.736Z,55.50
2018-08-20T06:52:46.213Z,55.07
2018-08-20T06:55:16.112Z,51.50
2018-08-20T06:57:48.871Z,55.57
2018-08-20T07:00:17.811Z,53.23
2018-08-20T07:02:47.133Z,53.00
2018-08-20T07:05:15.910Z,52.20
2018-08-20T07:07:44.891Z,53.37
2018-08-20T07:10:16.231Z,49.90
2018-08-20T07:12:46.512Z,56.93
2018-08-20T07:15:16.599Z,62.13
2018-08-20T07:17:49.546Z,53.90
2018-08-20T07:20:18.960Z,53.10
2018-08-20T07:22:47.723Z,47.60
2018-08-20T07:25:17.176Z,52.73
2018-08-20T07:27:46.747Z,55.23
2018-08-20T07:30:16.462Z,49.63
2018-08-20T07:32:45.555Z,46.70
2018-08-20T07:35:16.776Z,51.70
2018-08-20T07:37:45.510Z,51.23
2018-08-20T07:40:16.028Z,45.53
2018-08-20T07:42:44.762Z,53.47
2018-08-20T07:45:19.715Z,45.93
2018-08-20T07:47:49.326Z,44.17
2018-08-20T07:50:17.944Z,47.60
2018-08-20T07:52:46.637Z,39.40
2018-08-20T07:55:15.427Z,44.93
2018-08-20T07:57:44.706Z,46.43
2018-08-20T08:00:13.376Z,44.13
2018-08-20T08:02:42.017Z,46.97
2018-08-20T08:05:11.411Z,44.03
2018-08-20T08:07:40.366Z,40.37
2018-08-20T08:10:12.095Z,39.07
2018-08-20T08:12:40.804Z,36.97
2018-08-20T08:15:11.348Z,32.07
2018-08-20T08:17:41.056Z,34.33
2018-08-20T08:20:11.474Z,33.97
2018-08-20T08:22:40.802Z,35.43
2018-08-20T08:25:09.731Z,34.70
2018-08-20T08:27:38.470Z,32.10
2018-08-20T08:30:18.765Z,32.50
2018-08-20T08:32:47.628Z,32.93
2018-08-20T08:35:16.398Z,36.77
2018-08-20T08:37:45.117Z,34.13
2018-08-20T08:40:15.055Z,40.90
2018-08-20T08:42:43.908Z,33.50
2018-08-20T08:45:15.461Z,32.23
2018-08-20T08:47:44.794Z,33.20
2018-08-20T08:50:14.328Z,33.00
2018-08-20T08:52:43.036Z,36.73
2018-08-20T08:55:11.744Z,40.53
2018-08-20T08:57:40.388Z,37.67
2018-08-20T09:00:18.599Z,37.80
2018-08-20T09:02:48.176Z,32.33
2018-08-20T09:05:17.101Z,33.97
2018-08-20T09:07:45.802Z,31.20
2018-08-20T09:10:14.541Z,32.90
2018-08-20T09:12:43.229Z,35.23
2018-08-20T09:15:14.801Z,36.03
2018-08-20T09:17:43.835Z,36.90
2018-08-20T09:20:14.556Z,30.40
2018-08-20T09:22:43.369Z,22.90
2018-08-20T09:25:12.945Z,23.83
2018-08-20T09:27:42.820Z,22.23
2018-08-20T09:30:16.383Z,19.90
2018-08-20T09:32:46.165Z,21.37
2018-08-20T09:35:14.851Z,19.93
2018-08-20T09:37:43.523Z,20.73
2018-08-20T09:40:12.771Z,16.07
2018-08-20T09:42:41.962Z,15.70
2018-08-20T09:45:10.882Z,15.00
2018-08-20T09:47:40.478Z,16.10
2018-08-20T09:50:11.011Z,12.43
2018-08-20T09:52:39.658Z,8.07
2018-08-20T09:55:09.153Z,13.53
2018-08-20T09:57:37.843Z,7.20
2018-08-20T10:00:09.971Z,9.67
2018-08-20T10:02:38.674Z,7.47
2018-08-20T10:05:07.403Z,10.60
2018-08-20T10:07:36.035Z,9.87
2018-08-20T10:10:05.252Z,11.70
2018-08-20T10:12:34.992Z,8.90
2018-08-20T10:15:03.851Z,7.07
2018-08-20T10:17:32.542Z,7.67
2018-08-20T10:20:01.114Z,7.97
2018-08-20T10:22:29.744Z,6.33
2018-08-20T10:24:58.543Z,6.63
2018-08-20T10:27:27.134Z,6.70
2018-08-20T10:29:55.993Z,5.90
2018-08-20T10:32:24.699Z,6.30
2018-08-20T10:34:53.237Z,5.07
2018-08-20T10:37:21.887Z,6.50
2018-08-20T10:39:50.512Z,6.60
2018-08-20T10:42:19.333Z,7.27
2018-08-20T10:44:52.839Z,8.03
2018-08-20T10:47:22.388Z,6.53
2018-08-20T10:49:51.428Z,12.40
2018-08-20T10:52:20.016Z,7.33
2018-08-20T10:54:48.639Z,9.43
2018-08-20T10:57:17.271Z,8.80
2018-08-20T10:59:45.954Z,7.83
2018-08-20T11:02:14.620Z,9.57
2018-08-20T11:04:43.268Z,8.37
2018-08-20T11:07:11.908Z,8.70
2018-08-20T11:09:40.477Z,8.70
2018-08-20T11:12:09.231Z,8.33
2018-08-20T11:14:37.818Z,7.47
2018-08-20T11:17:06.647Z,7.93
2018-08-20T11:19:35.322Z,10.13
2018-08-20T11:22:03.937Z,6.73
2018-08-20T11:24:33.477Z,7.63
2018-08-20T11:27:02.223Z,9.87
2018-08-20T11:29:30.825Z,9.67
2018-08-20T11:31:59.553Z,7.13
2018-08-20T11:34:28.212Z,9.27
2018-08-20T11:36:57.071Z,8.47
2018-08-20T11:39:25.673Z,9.23
2018-08-20T11:41:54.317Z,6.70
2018-08-20T11:44:22.897Z,7.73
2018-08-20T11:46:51.592Z,4.80
2018-08-20T11:49:20.635Z,5.67
2018-08-20T11:51:49.228Z,6.87
2018-08-20T11:54:19.432Z,4.83
2018-08-20T11:56:48.176Z,7.07
2018-08-20T11:59:16.863Z,6.43
2018-08-20T12:01:46.308Z,3.07
2018-08-20T12:04:15.019Z,3.60
2018-08-20T12:06:46.610Z,3.67
2018-08-20T12:09:15.375Z,4.50
2018-08-20T12:11:45.227Z,4.93
2018-08-20T12:14:13.953Z,7.03
2018-08-20T12:16:42.707Z,6.90
2018-08-20T12:19:12.101Z,3.53
2018-08-20T12:21:41.693Z,3.40
2018-08-20T12:24:11.538Z,4.57
2018-08-20T12:26:40.920Z,4.33
2018-08-20T12:29:10.004Z,3.30
2018-08-20T12:31:38.650Z,4.03
2018-08-20T12:34:08.253Z,4.20
2018-08-20T12:36:37.374Z,13.27
2018-08-20T12:39:07.661Z,9.40
2018-08-20T12:41:36.394Z,4.57
2018-08-20T12:44:05.519Z,5.20
2018-08-20T12:46:34.806Z,3.43
2018-08-20T12:49:03.445Z,4.83
2018-08-20T12:51:33.779Z,3.40
2018-08-20T12:54:02.627Z,3.37
2018-08-20T12:56:33.198Z,4.97
2018-08-20T12:59:02.038Z,13.40
2018-08-20T13:01:30.692Z,6.97
2018-08-20T13:04:00.670Z,17.33
2018-08-20T13:06:29.437Z,4.63
2018-08-20T13:08:59.379Z,4.13
2018-08-20T13:11:31.738Z,6.37
2018-08-20T13:14:00.687Z,8.47
2018-08-20T13:16:30.216Z,3.83
2018-08-20T13:19:00.464Z,3.63
2018-08-20T13:21:30.151Z,3.77
2018-08-20T13:23:59.577Z,3.17
2018-08-20T13:26:28.965Z,3.87
2018-08-20T13:28:58.794Z,3.37
2018-08-20T13:31:28.723Z,4.77
2018-08-20T13:34:00.273Z,1.83
2018-08-20T13:36:32.941Z,1.37
2018-08-20T13:39:01.737Z,2.67
2018-08-20T13:41:31.840Z,1.10
2018-08-20T13:44:02.706Z,2.27
2018-08-20T13:46:33.023Z,11.17
2018-08-20T13:49:01.715Z,8.50
2018-08-20T13:51:32.292Z,2.93
2018-08-20T13:54:01.147Z,5.53
2018-08-20T13:56:30.156Z,2.60
2018-08-20T13:58:59.176Z,4.90
2018-08-20T14:01:27.992Z,4.97
2018-08-20T14:03:57.742Z,1.10
2018-08-20T14:06:27.334Z,2.13
2018-08-20T14:08:58.643Z,1.80
2018-08-20T14:11:27.410Z,1.43
2018-08-20T14:13:56.288Z,2.27
2018-08-20T14:16:25.124Z,1.13
2018-08-20T14:18:54.239Z,3.37
2018-08-20T14:21:23.007Z,2.00
2018-08-20T14:23:51.953Z,2.90
2018-08-20T14:26:20.605Z,2.03
2018-08-20T14:28:49.353Z,2.47
2018-08-20T14:31:19.223Z,2.30
2018-08-20T14:33:48.792Z,3.53
2018-08-20T14:36:18.409Z,2.33
2018-08-20T14:38:47.174Z,2.70
2018-08-20T14:41:18.496Z,3.17
2018-08-20T14:43:47.282Z,2.13
2018-08-20T14:46:21.592Z,5.30
2018-08-20T14:48:50.986Z,3.23
2018-08-20T14:51:19.754Z,1.33
2018-08-20T14:53:49.882Z,2.23
2018-08-20T14:56:20.582Z,1.33
2018-08-20T14:58:49.246Z,2.00
2018-08-20T15:01:20.139Z,2.77
2018-08-20T15:03:48.805Z,1.97
2018-08-20T15:06:17.546Z,4.90
2018-08-20T15:08:47.826Z,4.63
2018-08-20T15:11:19.242Z,4.03
2018-08-20T15:13:50.527Z,2.30
2018-08-20T15:16:20.542Z,2.33
2018-08-20T15:18:49.321Z,1.77
2018-08-20T15:21:17.938Z,2.93
2018-08-20T15:23:46.732Z,2.50
2018-08-20T15:26:15.519Z,2.23
2018-08-20T15:28:44.185Z,3.17
2018-08-20T15:31:12.778Z,7.00
2018-08-20T15:33:43.645Z,1.47
2018-08-20T15:36:12.298Z,2.60
2018-08-20T15:38:40.911Z,2.27
2018-08-20T15:41:09.810Z,2.93
2018-08-20T15:43:38.440Z,2.77
2018-08-20T15:46:07.069Z,3.63
2018-08-20T15:48:35.765Z,2.37
2018-08-20T15:51:06.639Z,4.13
2018-08-20T15:53:35.290Z,3.17
2018-08-20T15:56:03.983Z,1.70
2018-08-20T15:58:32.681Z,1.90
2018-08-20T16:01:01.318Z,2.27
2018-08-20T16:03:30.102Z,4.10
2018-08-20T16:05:58.850Z,1.80
2018-08-20T16:08:27.628Z,3.53
2018-08-20T16:10:56.905Z,4.83
2018-08-20T16:13:25.564Z,2.60
2018-08-20T16:15:54.174Z,1.57
2018-08-20T16:18:22.815Z,6.63
2018-08-20T16:20:51.509Z,3.43
2018-08-20T16:23:20.128Z,3.13
2018-08-20T16:25:48.901Z,1.90
2018-08-20T16:28:17.699Z,2.80
2018-08-20T16:30:46.308Z,2.10
2018-08-20T16:33:15.021Z,2.03
2018-08-20T16:35:44.657Z,3.30
2018-08-20T16:38:13.447Z,1.73
2018-08-20T16:40:42.369Z,2.57
2018-08-20T16:43:12.439Z,2.00
2018-08-20T16:45:41.735Z,3.67
2018-08-20T16:48:10.763Z,1.93
2018-08-20T16:50:39.621Z,5.13
2018-08-20T16:53:08.367Z,3.17
2018-08-20T16:55:37.207Z,1.70
2018-08-20T16:58:06.002Z,2.30
2018-08-20T17:00:34.679Z,2.53
2018-08-20T17:03:03.372Z,2.77
2018-08-20T17:05:38.222Z,2.13
2018-08-20T17:08:07.176Z,3.17
2018-08-20T17:10:35.836Z,4.97
2018-08-20T17:13:04.580Z,3.67
2018-08-20T17:15:33.161Z,3.87
2018-08-20T17:18:01.817Z,4.40
2018-08-20T17:20:30.513Z,4.97
2018-08-20T17:23:12.261Z,3.73
2018-08-20T17:25:41.085Z,2.93
2018-08-20T17:28:09.785Z,2.37
2018-08-20T17:30:38.501Z,2.60
2018-08-20T17:33:08.102Z,4.47
2018-08-20T17:35:42.172Z,2.90
2018-08-20T17:38:11.255Z,2.30
2018-08-20T17:40:40.780Z,2.93
2018-08-20T17:43:09.969Z,3.60
2018-08-20T17:45:38.832Z,2.40
2018-08-20T17:48:16.394Z,6.03
2018-08-20T17:50:45.129Z,2.33
2018-08-20T17:53:14.639Z,4.57
2018-08-20T17:55:43.363Z,5.07
2018-08-20T17:58:12.077Z,3.30
2018-08-20T18:00:46.883Z,2.00
2018-08-20T18:03:26.202Z,3.20
2018-08-20T18:05:59.269Z,2.97
2018-08-20T18:08:29.339Z,3.07
2018-08-20T18:10:58.183Z,3.60
2018-08-20T18:13:39.312Z,3.60
2018-08-20T18:16:09.381Z,2.53
2018-08-20T18:18:38.553Z,7.63
2018-08-20T18:21:07.298Z,3.37
2018-08-20T18:23:36.581Z,4.20
2018-08-20T18:26:05.343Z,4.40
2018-08-20T18:28:41.898Z,5.93
2018-08-20T18:31:13.109Z,2.33
2018-08-20T18:33:42.868Z,3.03
2018-08-20T18:36:18.800Z,4.23
2018-08-20T18:39:04.936Z,4.47
2018-08-20T18:42:10.185Z,4.83
2018-08-20T18:44:38.916Z,5.00
2018-08-20T18:47:09.218Z,4.53
2018-08-20T18:49:50.165Z,5.17
2018-08-20T18:52:19.239Z,3.63
2018-08-20T18:54:50.697Z,3.77
2018-08-20T18:57:20.897Z,5.10
2018-08-20T18:59:49.781Z,4.70
2018-08-20T19:02:40.826Z,3.53
2018-08-20T19:05:12.667Z,4.20
2018-08-20T19:07:41.850Z,4.13
2018-08-20T19:10:18.813Z,3.73
2018-08-20T19:12:47.608Z,4.07
2018-08-20T19:15:43.002Z,2.40
2018-08-20T19:18:15.270Z,3.67
2018-08-20T19:20:44.547Z,5.37
2018-08-20T19:23:13.210Z,4.70
2018-08-20T19:25:41.950Z,4.07
2018-08-20T19:28:15.972Z,7.03
2018-08-20T19:30:45.321Z,2.77
2018-08-20T19:33:20.003Z,4.47
2018-08-20T19:35:48.683Z,3.17
2018-08-20T19:38:17.445Z,4.07
2018-08-20T19:40:46.127Z,5.10
2018-08-20T19:43:14.814Z,3.13
2018-08-20T19:45:45.588Z,3.93
2018-08-20T19:48:15.164Z,6.17
2018-08-20T19:50:43.845Z,7.70
2018-08-20T19:53:29.154Z,6.60
2018-08-20T19:55:57.864Z,4.57
2018-08-20T19:58:30.865Z,4.23
2018-08-20T20:01:13.242Z,5.53
2018-08-20T20:03:43.609Z,5.43
2018-08-20T20:06:12.646Z,7.43
2018-08-20T20:08:41.296Z,10.57
2018-08-20T20:11:17.293Z,8.73
2018-08-20T20:13:46.761Z,12.20
2018-08-20T20:16:15.497Z,11.13
2018-08-20T20:18:44.426Z,11.80
2018-08-20T20:21:13.247Z,10.23
2018-08-20T20:23:42.092Z,12.40
2018-08-20T20:26:10.743Z,11.23
2018-08-20T20:28:39.483Z,8.80
2018-08-20T20:31:08.624Z,8.87
2018-08-20T20:33:37.387Z,9.00
2018-08-20T20:36:13.058Z,10.40
2018-08-20T20:38:41.813Z,12.27
2018-08-20T20:41:10.850Z,9.37
2018-08-20T20:43:39.616Z,12.70
2018-08-20T20:46:09.926Z,10.07
2018-08-20T20:48:38.929Z,10.60
2018-08-20T20:51:07.747Z,9.63
2018-08-20T20:53:36.611Z,8.00
2018-08-20T20:56:05.356Z,6.67
2018-08-20T20:58:34.860Z,6.53
2018-08-20T21:01:05.618Z,5.83
2018-08-20T21:03:34.827Z,3.90
2018-08-20T21:06:04.980Z,4.80
2018-08-20T21:08:45.813Z,6.63
2018-08-20T21:11:15.553Z,6.67
2018-08-20T21:13:44.637Z,6.13
2018-08-20T21:16:14.952Z,8.47
2018-08-20T21:18:46.743Z,7.00
2018-08-20T21:21:17.150Z,7.80
2018-08-20T21:23:45.934Z,7.93
2018-08-20T21:26:14.746Z,6.20
2018-08-20T21:28:45.462Z,4.63
2018-08-20T21:31:15.526Z,4.47
2018-08-20T21:33:44.924Z,6.80
2018-08-20T21:36:14.212Z,5.67
2018-08-20T21:38:43.278Z,6.37
2018-08-20T21:41:11.998Z,7.60
2018-08-20T21:43:45.328Z,7.33
2018-08-20T21:46:14.467Z,6.80
2018-08-20T21:48:43.713Z,5.77
2018-08-20T21:51:20.593Z,6.13
2018-08-20T21:53:49.853Z,5.83
2018-08-20T21:56:19.362Z,4.73
2018-08-20T21:58:48.168Z,4.97
2018-08-20T22:01:18.245Z,5.60
2018-08-20T22:03:47.072Z,7.57
2018-08-20T22:06:15.841Z,4.90
2018-08-20T22:08:44.599Z,5.33
2018-08-20T22:11:13.186Z,5.77
2018-08-20T22:13:41.864Z,5.60
2018-08-20T22:16:18.620Z,5.57
2018-08-20T22:18:52.007Z,4.70
2018-08-20T22:21:20.804Z,5.53
2018-08-20T22:23:49.593Z,5.63
2018-08-20T22:26:20.748Z,5.40
2018-08-20T22:28:52.190Z,6.57
2018-08-20T22:31:21.510Z,7.73
2018-08-20T22:33:57.749Z,4.30
2018-08-20T22:36:27.461Z,5.17
2018-08-20T22:38:59.474Z,5.97
2018-08-20T22:41:29.420Z,5.23
2018-08-20T22:43:58.171Z,4.43
2018-08-20T22:46:27.251Z,4.60
2018-08-20T22:48:58.458Z,7.93
2018-08-20T22:51:28.301Z,5.60
2018-08-20T22:53:59.596Z,5.47
2018-08-20T22:56:37.826Z,5.90
2018-08-20T22:59:08.410Z,7.03
2018-08-20T23:01:37.110Z,5.23
2018-08-20T23:04:06.002Z,6.20
2018-08-20T23:06:34.792Z,5.20
2018-08-20T23:09:18.652Z,5.23
2018-08-20T23:11:47.368Z,4.17
2018-08-20T23:14:16.039Z,5.43
2018-08-20T23:16:46.136Z,4.80
2018-08-20T23:19:14.820Z,6.33
2018-08-20T23:21:44.616Z,4.70
2018-08-20T23:24:14.235Z,5.40
2018-08-20T23:26:43.108Z,5.77
2018-08-20T23:29:11.939Z,6.33
2018-08-20T23:31:40.891Z,5.93
2018-08-20T23:34:12.813Z,7.20
2018-08-20T23:36:42.104Z,6.20
2018-08-20T23:39:13.166Z,6.87
2018-08-20T23:41:41.954Z,8.23
2018-08-20T23:44:10.747Z,6.43
2018-08-20T23:46:40.496Z,7.03
2018-08-20T23:49:09.238Z,7.83
2018-08-20T23:51:37.931Z,8.17
2018-08-20T23:54:06.731Z,8.10
2018-08-20T23:56:35.374Z,8.23
2018-08-20T23:59:04.042Z,7.70
